sensor_id;sensor_type;location;lat;lon;timestamp;temperature;humidity
7204;DHT22;3643;52.460;13.322;2024-02-04T00:00:31;7.00;99.90
7204;DHT22;3643;52.460;13.322;2024-02-04T00:02:59;7.00;99.90
7204;DHT22;3643;52.460;13.322;2024-02-04T00:05:27;7.00;99.90
7204;DHT22;3643;52.460;13.322;2024-02-04T00:07:55;7.10;99.90
7204;DHT22;3643;52.460;13.322;2024-02-04T00:10:23;7.10;99.90
7204;DHT22;3643;52.460;13.322;2024-02-04T00:12:53;7.10;99.90
7204;DHT22;3643;52.460;13.322;2024-02-04T00:15:23;7.10;99.90
7204;DHT22;3643;52.460;13.322;2024-02-04T00:17:51;7.00;99.90
7204;DHT22;3643;52.460;13.322;2024-02-04T00:20:19;7.10;99.90
7204;DHT22;3643;52.460;13.322;2024-02-04T00:22:47;7.00;99.90
7204;DHT22;3643;52.460;13.322;2024-02-04T00:25:15;7.00;99.90
7204;DHT22;3643;52.460;13.322;2024-02-04T00:27:46;6.90;99.90
7204;DHT22;3643;52.460;13.322;2024-02-04T00:30:14;6.80;99.90
7204;DHT22;3643;52.460;13.322;2024-02-04T00:32:43;6.70;99.90
7204;DHT22;3643;52.460;13.322;2024-02-04T00:35:11;6.60;99.90
7204;DHT22;3643;52.460;13.322;2024-02-04T00:37:39;6.50;99.90
7204;DHT22;3643;52.460;13.322;2024-02-04T00:40:09;6.40;99.90
7204;DHT22;3643;52.460;13.322;2024-02-04T00:42:37;6.40;99.90
7204;DHT22;3643;52.460;13.322;2024-02-04T00:45:05;6.30;99.90
7204;DHT22;3643;52.460;13.322;2024-02-04T00:47:34;6.20;99.90
7204;DHT22;3643;52.460;13.322;2024-02-04T00:50:03;6.30;99.90
7204;DHT22;3643;52.460;13.322;2024-02-04T00:52:32;6.10;99.90
7204;DHT22;3643;52.460;13.322;2024-02-04T00:55:00;6.10;99.90
7204;DHT22;3643;52.460;13.322;2024-02-04T00:57:28;6.10;99.90
7204;DHT22;3643;52.460;13.322;2024-02-04T00:59:56;6.10;99.90
7204;DHT22;3643;52.460;13.322;2024-02-04T01:02:24;6.10;99.90
7204;DHT22;3643;52.460;13.322;2024-02-04T01:04:52;6.10;99.90
7204;DHT22;3643;52.460;13.322;2024-02-04T01:07:21;6.10;99.90
7204;DHT22;3643;52.460;13.322;2024-02-04T01:09:49;6.00;99.90
7204;DHT22;3643;52.460;13.322;2024-02-04T01:12:17;6.10;99.90
7204;DHT22;3643;52.460;13.322;2024-02-04T01:14:46;6.00;99.90
7204;DHT22;3643;52.460;13.322;2024-02-04T01:17:14;5.90;99.90
7204;DHT22;3643;52.460;13.322;2024-02-04T01:19:42;5.90;99.90
7204;DHT22;3643;52.460;13.322;2024-02-04T01:22:10;5.90;99.90
7204;DHT22;3643;52.460;13.322;2024-02-04T01:24:39;5.80;99.90
7204;DHT22;3643;52.460;13.322;2024-02-04T01:27:07;5.80;99.90
7204;DHT22;3643;52.460;13.322;2024-02-04T01:29:35;5.70;99.90
7204;DHT22;3643;52.460;13.322;2024-02-04T01:32:04;5.60;99.90
7204;DHT22;3643;52.460;13.322;2024-02-04T01:34:32;5.60;99.90
7204;DHT22;3643;52.460;13.322;2024-02-04T01:37:00;5.60;99.90
7204;DHT22;3643;52.460;13.322;2024-02-04T01:39:28;5.50;99.90
7204;DHT22;3643;52.460;13.322;2024-02-04T01:41:58;5.50;99.90
7204;DHT22;3643;52.460;13.322;2024-02-04T01:44:27;5.40;99.90
7204;DHT22;3643;52.460;13.322;2024-02-04T01:46:55;5.40;99.90
7204;DHT22;3643;52.460;13.322;2024-02-04T01:49:24;5.30;99.90
7204;DHT22;3643;52.460;13.322;2024-02-04T01:51:53;5.30;99.90
7204;DHT22;3643;52.460;13.322;2024-02-04T01:54:22;5.30;99.90
7204;DHT22;3643;52.460;13.322;2024-02-04T01:56:52;5.30;99.90
7204;DHT22;3643;52.460;13.322;2024-02-04T01:59:23;5.30;99.90
7204;DHT22;3643;52.460;13.322;2024-02-04T02:01:54;5.30;99.90
7204;DHT22;3643;52.460;13.322;2024-02-04T02:04:23;5.30;99.90
7204;DHT22;3643;52.460;13.322;2024-02-04T02:06:52;5.30;99.90
7204;DHT22;3643;52.460;13.322;2024-02-04T02:09:20;5.40;99.90
7204;DHT22;3643;52.460;13.322;2024-02-04T02:12:09;5.40;99.90
7204;DHT22;3643;52.460;13.322;2024-02-04T02:14:41;5.40;99.90
7204;DHT22;3643;52.460;13.322;2024-02-04T02:17:12;5.40;99.90
7204;DHT22;3643;52.460;13.322;2024-02-04T02:19:50;5.40;99.90
7204;DHT22;3643;52.460;13.322;2024-02-04T02:22:26;5.40;99.90
7204;DHT22;3643;52.460;13.322;2024-02-04T02:24:57;5.40;99.90
7204;DHT22;3643;52.460;13.322;2024-02-04T02:27:26;5.40;99.90
7204;DHT22;3643;52.460;13.322;2024-02-04T02:29:54;5.40;99.90
7204;DHT22;3643;52.460;13.322;2024-02-04T02:32:22;5.30;99.90
7204;DHT22;3643;52.460;13.322;2024-02-04T02:34:50;5.20;99.90
7204;DHT22;3643;52.460;13.322;2024-02-04T02:37:26;5.20;99.90
7204;DHT22;3643;52.460;13.322;2024-02-04T02:40:01;5.20;99.90
7204;DHT22;3643;52.460;13.322;2024-02-04T02:42:32;5.30;99.90
7204;DHT22;3643;52.460;13.322;2024-02-04T02:45:01;5.10;99.90
7204;DHT22;3643;52.460;13.322;2024-02-04T02:47:29;5.50;99.90
7204;DHT22;3643;52.460;13.322;2024-02-04T02:49:59;5.10;99.90
7204;DHT22;3643;52.460;13.322;2024-02-04T02:52:28;5.20;99.90
7204;DHT22;3643;52.460;13.322;2024-02-04T02:54:56;5.20;99.90
7204;DHT22;3643;52.460;13.322;2024-02-04T02:57:26;5.10;99.90
7204;DHT22;3643;52.460;13.322;2024-02-04T02:59:54;5.20;99.90
7204;DHT22;3643;52.460;13.322;2024-02-04T03:02:22;5.20;99.90
7204;DHT22;3643;52.460;13.322;2024-02-04T03:04:50;5.20;99.90
7204;DHT22;3643;52.460;13.322;2024-02-04T03:07:18;5.30;99.90
7204;DHT22;3643;52.460;13.322;2024-02-04T03:09:46;5.50;99.90
7204;DHT22;3643;52.460;13.322;2024-02-04T03:12:14;5.40;99.90
7204;DHT22;3643;52.460;13.322;2024-02-04T03:14:43;5.50;99.90
7204;DHT22;3643;52.460;13.322;2024-02-04T03:17:12;5.60;99.90
7204;DHT22;3643;52.460;13.322;2024-02-04T03:19:40;5.70;99.90
7204;DHT22;3643;52.460;13.322;2024-02-04T03:22:08;5.70;99.90
7204;DHT22;3643;52.460;13.322;2024-02-04T03:24:36;5.80;99.90
7204;DHT22;3643;52.460;13.322;2024-02-04T03:27:04;5.80;99.90
7204;DHT22;3643;52.460;13.322;2024-02-04T03:29:32;5.80;99.90
7204;DHT22;3643;52.460;13.322;2024-02-04T03:32:01;5.90;99.90
7204;DHT22;3643;52.460;13.322;2024-02-04T03:34:29;5.90;99.90
7204;DHT22;3643;52.460;13.322;2024-02-04T03:36:57;6.00;99.90
7204;DHT22;3643;52.460;13.322;2024-02-04T03:39:26;5.90;99.90
7204;DHT22;3643;52.460;13.322;2024-02-04T03:41:54;6.00;99.90
7204;DHT22;3643;52.460;13.322;2024-02-04T03:44:22;6.00;99.90
7204;DHT22;3643;52.460;13.322;2024-02-04T03:46:50;6.00;99.90
7204;DHT22;3643;52.460;13.322;2024-02-04T03:49:19;6.10;99.90
7204;DHT22;3643;52.460;13.322;2024-02-04T03:51:47;6.10;99.90
7204;DHT22;3643;52.460;13.322;2024-02-04T03:54:15;6.10;99.90
7204;DHT22;3643;52.460;13.322;2024-02-04T03:56:45;6.10;99.90
7204;DHT22;3643;52.460;13.322;2024-02-04T03:59:13;6.10;99.90
7204;DHT22;3643;52.460;13.322;2024-02-04T04:01:47;6.10;99.90
7204;DHT22;3643;52.460;13.322;2024-02-04T04:04:15;6.10;99.90
7204;DHT22;3643;52.460;13.322;2024-02-04T04:06:45;6.10;99.90
7204;DHT22;3643;52.460;13.322;2024-02-04T04:09:15;6.10;99.90
7204;DHT22;3643;52.460;13.322;2024-02-04T04:11:43;6.20;99.90
7204;DHT22;3643;52.460;13.322;2024-02-04T04:14:11;5.90;99.90
7204;DHT22;3643;52.460;13.322;2024-02-04T04:16:39;5.90;99.90
7204;DHT22;3643;52.460;13.322;2024-02-04T04:19:07;5.80;99.90
7204;DHT22;3643;52.460;13.322;2024-02-04T04:21:35;5.80;99.90
7204;DHT22;3643;52.460;13.322;2024-02-04T04:24:06;5.70;99.90
7204;DHT22;3643;52.460;13.322;2024-02-04T04:26:34;5.60;99.90
7204;DHT22;3643;52.460;13.322;2024-02-04T04:29:03;5.60;99.90
7204;DHT22;3643;52.460;13.322;2024-02-04T04:31:31;5.70;99.90
7204;DHT22;3643;52.460;13.322;2024-02-04T04:33:59;5.50;99.90
7204;DHT22;3643;52.460;13.322;2024-02-04T04:36:27;5.60;99.90
7204;DHT22;3643;52.460;13.322;2024-02-04T04:38:55;5.60;99.90
7204;DHT22;3643;52.460;13.322;2024-02-04T04:41:25;5.40;99.90
7204;DHT22;3643;52.460;13.322;2024-02-04T04:43:53;5.50;99.90
7204;DHT22;3643;52.460;13.322;2024-02-04T04:46:21;5.40;99.90
7204;DHT22;3643;52.460;13.322;2024-02-04T04:48:49;5.40;99.90
7204;DHT22;3643;52.460;13.322;2024-02-04T04:51:19;5.40;99.90
7204;DHT22;3643;52.460;13.322;2024-02-04T04:53:47;5.30;99.90
7204;DHT22;3643;52.460;13.322;2024-02-04T04:56:15;5.30;99.90
7204;DHT22;3643;52.460;13.322;2024-02-04T04:58:44;5.30;99.90
7204;DHT22;3643;52.460;13.322;2024-02-04T05:01:12;5.40;99.90
7204;DHT22;3643;52.460;13.322;2024-02-04T05:03:40;5.30;99.90
7204;DHT22;3643;52.460;13.322;2024-02-04T05:06:08;5.30;99.90
7204;DHT22;3643;52.460;13.322;2024-02-04T05:08:37;5.30;99.90
7204;DHT22;3643;52.460;13.322;2024-02-04T05:11:05;5.20;99.90
7204;DHT22;3643;52.460;13.322;2024-02-04T05:13:33;5.20;99.90
7204;DHT22;3643;52.460;13.322;2024-02-04T05:16:02;5.20;99.90
7204;DHT22;3643;52.460;13.322;2024-02-04T05:18:31;5.10;99.90
7204;DHT22;3643;52.460;13.322;2024-02-04T05:21:01;5.10;99.90
7204;DHT22;3643;52.460;13.322;2024-02-04T05:23:29;5.10;99.90
7204;DHT22;3643;52.460;13.322;2024-02-04T05:25:57;5.10;99.90
7204;DHT22;3643;52.460;13.322;2024-02-04T05:28:24;5.20;99.90
7204;DHT22;3643;52.460;13.322;2024-02-04T05:30:52;5.20;99.90
7204;DHT22;3643;52.460;13.322;2024-02-04T05:33:22;5.20;99.90
7204;DHT22;3643;52.460;13.322;2024-02-04T05:35:50;5.20;99.90
7204;DHT22;3643;52.460;13.322;2024-02-04T05:38:18;5.20;99.90
7204;DHT22;3643;52.460;13.322;2024-02-04T05:40:46;5.20;99.90
7204;DHT22;3643;52.460;13.322;2024-02-04T05:43:14;5.20;99.90
7204;DHT22;3643;52.460;13.322;2024-02-04T05:45:42;5.50;99.90
7204;DHT22;3643;52.460;13.322;2024-02-04T05:48:11;5.20;99.90
7204;DHT22;3643;52.460;13.322;2024-02-04T05:50:41;5.10;99.90
7204;DHT22;3643;52.460;13.322;2024-02-04T05:53:09;5.20;99.90
7204;DHT22;3643;52.460;13.322;2024-02-04T05:55:39;5.30;99.90
7204;DHT22;3643;52.460;13.322;2024-02-04T05:58:07;5.30;99.90
7204;DHT22;3643;52.460;13.322;2024-02-04T06:00:35;5.30;99.90
7204;DHT22;3643;52.460;13.322;2024-02-04T06:03:03;5.40;99.90
7204;DHT22;3643;52.460;13.322;2024-02-04T06:05:32;5.40;99.90
7204;DHT22;3643;52.460;13.322;2024-02-04T06:08:01;5.50;99.90
7204;DHT22;3643;52.460;13.322;2024-02-04T06:10:29;5.50;99.90
7204;DHT22;3643;52.460;13.322;2024-02-04T06:12:57;5.50;99.90
7204;DHT22;3643;52.460;13.322;2024-02-04T06:15:25;5.60;99.90
7204;DHT22;3643;52.460;13.322;2024-02-04T06:17:53;5.60;99.90
7204;DHT22;3643;52.460;13.322;2024-02-04T06:20:21;5.60;99.90
7204;DHT22;3643;52.460;13.322;2024-02-04T06:22:49;5.60;99.90
7204;DHT22;3643;52.460;13.322;2024-02-04T06:25:19;5.70;99.90
7204;DHT22;3643;52.460;13.322;2024-02-04T06:27:47;5.70;99.90
7204;DHT22;3643;52.460;13.322;2024-02-04T06:30:15;5.70;99.90
7204;DHT22;3643;52.460;13.322;2024-02-04T06:32:44;5.70;99.90
7204;DHT22;3643;52.460;13.322;2024-02-04T06:35:12;5.70;99.90
7204;DHT22;3643;52.460;13.322;2024-02-04T06:37:41;5.70;99.90
7204;DHT22;3643;52.460;13.322;2024-02-04T06:40:10;5.70;99.90
7204;DHT22;3643;52.460;13.322;2024-02-04T06:42:40;5.60;99.90
7204;DHT22;3643;52.460;13.322;2024-02-04T06:45:08;5.60;99.90
7204;DHT22;3643;52.460;13.322;2024-02-04T06:47:36;5.60;99.90
7204;DHT22;3643;52.460;13.322;2024-02-04T06:50:06;5.70;99.90
7204;DHT22;3643;52.460;13.322;2024-02-04T06:52:35;5.70;99.90
7204;DHT22;3643;52.460;13.322;2024-02-04T06:55:04;5.70;99.90
7204;DHT22;3643;52.460;13.322;2024-02-04T06:57:32;5.70;99.90
7204;DHT22;3643;52.460;13.322;2024-02-04T07:00:02;5.70;99.90
7204;DHT22;3643;52.460;13.322;2024-02-04T07:02:32;5.70;99.90
7204;DHT22;3643;52.460;13.322;2024-02-04T07:05:00;5.70;99.90
7204;DHT22;3643;52.460;13.322;2024-02-04T07:07:28;5.70;99.90
7204;DHT22;3643;52.460;13.322;2024-02-04T07:09:58;5.80;99.90
7204;DHT22;3643;52.460;13.322;2024-02-04T07:12:26;5.80;99.90
7204;DHT22;3643;52.460;13.322;2024-02-04T07:14:54;5.90;99.90
7204;DHT22;3643;52.460;13.322;2024-02-04T07:17:24;5.90;99.90
7204;DHT22;3643;52.460;13.322;2024-02-04T07:19:52;6.00;99.90
7204;DHT22;3643;52.460;13.322;2024-02-04T07:22:20;6.00;99.90
7204;DHT22;3643;52.460;13.322;2024-02-04T07:24:48;6.00;99.90
7204;DHT22;3643;52.460;13.322;2024-02-04T07:27:16;6.00;99.90
7204;DHT22;3643;52.460;13.322;2024-02-04T07:29:44;6.20;99.90
7204;DHT22;3643;52.460;13.322;2024-02-04T07:32:13;6.10;99.90
7204;DHT22;3643;52.460;13.322;2024-02-04T07:34:43;6.10;99.90
7204;DHT22;3643;52.460;13.322;2024-02-04T07:37:11;6.20;99.90
7204;DHT22;3643;52.460;13.322;2024-02-04T07:39:39;6.20;99.90
7204;DHT22;3643;52.460;13.322;2024-02-04T07:42:07;6.30;99.90
7204;DHT22;3643;52.460;13.322;2024-02-04T07:44:35;6.30;99.90
7204;DHT22;3643;52.460;13.322;2024-02-04T07:47:03;6.40;99.90
7204;DHT22;3643;52.460;13.322;2024-02-04T07:49:31;6.40;99.90
7204;DHT22;3643;52.460;13.322;2024-02-04T07:52:01;6.40;99.90
7204;DHT22;3643;52.460;13.322;2024-02-04T07:54:29;6.50;99.90
7204;DHT22;3643;52.460;13.322;2024-02-04T07:56:57;6.50;99.90
7204;DHT22;3643;52.460;13.322;2024-02-04T07:59:25;6.60;99.90
7204;DHT22;3643;52.460;13.322;2024-02-04T08:01:53;6.60;99.90
7204;DHT22;3643;52.460;13.322;2024-02-04T08:04:21;6.60;99.90
7204;DHT22;3643;52.460;13.322;2024-02-04T08:06:49;6.70;99.90
7204;DHT22;3643;52.460;13.322;2024-02-04T08:09:20;6.70;99.90
7204;DHT22;3643;52.460;13.322;2024-02-04T08:11:48;6.70;99.90
7204;DHT22;3643;52.460;13.322;2024-02-04T08:14:16;6.90;99.90
7204;DHT22;3643;52.460;13.322;2024-02-04T08:16:45;6.90;99.90
7204;DHT22;3643;52.460;13.322;2024-02-04T08:19:15;7.00;99.90
7204;DHT22;3643;52.460;13.322;2024-02-04T08:21:43;7.00;99.90
7204;DHT22;3643;52.460;13.322;2024-02-04T08:24:11;7.10;99.90
7204;DHT22;3643;52.460;13.322;2024-02-04T08:26:40;7.10;99.90
7204;DHT22;3643;52.460;13.322;2024-02-04T08:29:09;7.20;99.90
7204;DHT22;3643;52.460;13.322;2024-02-04T08:31:37;7.20;99.90
7204;DHT22;3643;52.460;13.322;2024-02-04T08:34:05;7.20;99.90
7204;DHT22;3643;52.460;13.322;2024-02-04T08:36:34;7.40;99.90
7204;DHT22;3643;52.460;13.322;2024-02-04T08:39:02;7.20;99.90
7204;DHT22;3643;52.460;13.322;2024-02-04T08:41:30;7.30;99.90
7204;DHT22;3643;52.460;13.322;2024-02-04T08:43:59;7.30;99.90
7204;DHT22;3643;52.460;13.322;2024-02-04T08:46:30;7.40;99.90
7204;DHT22;3643;52.460;13.322;2024-02-04T08:48:58;7.40;99.90
7204;DHT22;3643;52.460;13.322;2024-02-04T08:51:26;7.40;99.90
7204;DHT22;3643;52.460;13.322;2024-02-04T08:53:57;7.40;99.90
7204;DHT22;3643;52.460;13.322;2024-02-04T08:56:25;7.40;99.90
7204;DHT22;3643;52.460;13.322;2024-02-04T08:58:53;7.50;99.90
7204;DHT22;3643;52.460;13.322;2024-02-04T09:01:22;7.60;99.90
7204;DHT22;3643;52.460;13.322;2024-02-04T09:03:51;7.60;99.90
7204;DHT22;3643;52.460;13.322;2024-02-04T09:06:19;7.60;99.90
7204;DHT22;3643;52.460;13.322;2024-02-04T09:08:47;7.80;99.90
7204;DHT22;3643;52.460;13.322;2024-02-04T09:11:15;7.70;99.90
7204;DHT22;3643;52.460;13.322;2024-02-04T09:13:45;7.70;99.90
7204;DHT22;3643;52.460;13.322;2024-02-04T09:16:13;7.80;99.90
7204;DHT22;3643;52.460;13.322;2024-02-04T09:18:43;7.80;99.90
7204;DHT22;3643;52.460;13.322;2024-02-04T09:21:13;7.80;99.90
7204;DHT22;3643;52.460;13.322;2024-02-04T09:23:41;7.90;99.90
7204;DHT22;3643;52.460;13.322;2024-02-04T09:26:09;7.90;99.90
7204;DHT22;3643;52.460;13.322;2024-02-04T09:28:38;7.90;99.90
7204;DHT22;3643;52.460;13.322;2024-02-04T09:31:08;8.00;99.90
7204;DHT22;3643;52.460;13.322;2024-02-04T09:33:36;8.00;99.90
7204;DHT22;3643;52.460;13.322;2024-02-04T09:36:08;8.10;99.90
7204;DHT22;3643;52.460;13.322;2024-02-04T09:38:37;8.10;99.90
7204;DHT22;3643;52.460;13.322;2024-02-04T09:41:05;8.20;99.90
7204;DHT22;3643;52.460;13.322;2024-02-04T09:43:35;8.30;99.90
7204;DHT22;3643;52.460;13.322;2024-02-04T09:46:05;8.40;99.90
7204;DHT22;3643;52.460;13.322;2024-02-04T09:48:33;8.40;99.90
7204;DHT22;3643;52.460;13.322;2024-02-04T09:51:02;8.40;99.90
7204;DHT22;3643;52.460;13.322;2024-02-04T09:53:34;8.50;99.90
7204;DHT22;3643;52.460;13.322;2024-02-04T09:56:03;8.60;99.90
7204;DHT22;3643;52.460;13.322;2024-02-04T09:58:33;8.60;99.90
7204;DHT22;3643;52.460;13.322;2024-02-04T10:01:03;8.70;99.90
7204;DHT22;3643;52.460;13.322;2024-02-04T10:03:32;8.70;99.90
7204;DHT22;3643;52.460;13.322;2024-02-04T10:06:00;9.10;99.90
7204;DHT22;3643;52.460;13.322;2024-02-04T10:08:28;8.70;99.90
7204;DHT22;3643;52.460;13.322;2024-02-04T10:10:58;8.70;99.90
7204;DHT22;3643;52.460;13.322;2024-02-04T10:13:26;8.70;99.90
7204;DHT22;3643;52.460;13.322;2024-02-04T10:15:55;8.70;99.90
7204;DHT22;3643;52.460;13.322;2024-02-04T10:18:24;8.70;99.90
7204;DHT22;3643;52.460;13.322;2024-02-04T10:20:53;8.80;99.90
7204;DHT22;3643;52.460;13.322;2024-02-04T10:23:21;8.80;99.90
7204;DHT22;3643;52.460;13.322;2024-02-04T10:25:58;8.90;99.90
7204;DHT22;3643;52.460;13.322;2024-02-04T10:28:31;9.00;99.90
7204;DHT22;3643;52.460;13.322;2024-02-04T10:30:59;9.00;99.90
7204;DHT22;3643;52.460;13.322;2024-02-04T10:33:30;9.10;99.90
7204;DHT22;3643;52.460;13.322;2024-02-04T10:35:59;9.20;99.90
7204;DHT22;3643;52.460;13.322;2024-02-04T10:38:27;9.10;99.90
7204;DHT22;3643;52.460;13.322;2024-02-04T10:40:55;9.10;99.90
7204;DHT22;3643;52.460;13.322;2024-02-04T10:43:24;9.10;99.90
7204;DHT22;3643;52.460;13.322;2024-02-04T10:45:56;9.10;99.90
7204;DHT22;3643;52.460;13.322;2024-02-04T10:48:29;9.20;99.90
7204;DHT22;3643;52.460;13.322;2024-02-04T10:51:05;9.20;99.90
7204;DHT22;3643;52.460;13.322;2024-02-04T10:53:34;9.20;99.90
7204;DHT22;3643;52.460;13.322;2024-02-04T10:56:03;9.00;99.90
7204;DHT22;3643;52.460;13.322;2024-02-04T10:58:35;9.00;99.90
7204;DHT22;3643;52.460;13.322;2024-02-04T11:01:04;9.10;99.90
7204;DHT22;3643;52.460;13.322;2024-02-04T11:03:33;9.10;99.90
7204;DHT22;3643;52.460;13.322;2024-02-04T11:06:01;9.10;99.90
7204;DHT22;3643;52.460;13.322;2024-02-04T11:08:30;9.20;99.90
7204;DHT22;3643;52.460;13.322;2024-02-04T11:10:58;9.20;99.90
7204;DHT22;3643;52.460;13.322;2024-02-04T11:13:28;9.10;99.90
7204;DHT22;3643;52.460;13.322;2024-02-04T11:16:00;9.10;99.90
7204;DHT22;3643;52.460;13.322;2024-02-04T11:18:42;9.10;99.90
7204;DHT22;3643;52.460;13.322;2024-02-04T11:24:22;9.20;99.90
7204;DHT22;3643;52.460;13.322;2024-02-04T11:26:53;9.30;99.90
7204;DHT22;3643;52.460;13.322;2024-02-04T11:29:22;9.20;99.90
7204;DHT22;3643;52.460;13.322;2024-02-04T11:31:51;9.10;99.90
7204;DHT22;3643;52.460;13.322;2024-02-04T11:34:23;9.10;99.90
7204;DHT22;3643;52.460;13.322;2024-02-04T11:36:52;9.20;99.90
7204;DHT22;3643;52.460;13.322;2024-02-04T11:39:20;9.20;99.90
7204;DHT22;3643;52.460;13.322;2024-02-04T11:41:50;9.20;99.90
7204;DHT22;3643;52.460;13.322;2024-02-04T11:44:22;9.20;99.90
7204;DHT22;3643;52.460;13.322;2024-02-04T11:46:52;9.10;99.90
7204;DHT22;3643;52.460;13.322;2024-02-04T11:49:25;9.20;99.90
7204;DHT22;3643;52.460;13.322;2024-02-04T11:51:54;9.20;99.90
7204;DHT22;3643;52.460;13.322;2024-02-04T11:54:22;9.20;99.90
7204;DHT22;3643;52.460;13.322;2024-02-04T11:56:50;9.20;99.90
7204;DHT22;3643;52.460;13.322;2024-02-04T11:59:21;9.30;99.90
7204;DHT22;3643;52.460;13.322;2024-02-04T12:01:53;9.30;99.90
7204;DHT22;3643;52.460;13.322;2024-02-04T12:04:22;9.30;99.90
7204;DHT22;3643;52.460;13.322;2024-02-04T12:06:51;9.40;99.90
7204;DHT22;3643;52.460;13.322;2024-02-04T12:09:19;9.30;99.90
7204;DHT22;3643;52.460;13.322;2024-02-04T12:11:49;9.30;99.90
7204;DHT22;3643;52.460;13.322;2024-02-04T12:14:18;9.20;99.90
7204;DHT22;3643;52.460;13.322;2024-02-04T12:16:46;9.30;99.90
7204;DHT22;3643;52.460;13.322;2024-02-04T12:19:16;9.20;99.90
7204;DHT22;3643;52.460;13.322;2024-02-04T12:21:44;9.20;99.90
7204;DHT22;3643;52.460;13.322;2024-02-04T12:24:12;9.30;99.90
7204;DHT22;3643;52.460;13.322;2024-02-04T12:26:40;9.30;99.90
7204;DHT22;3643;52.460;13.322;2024-02-04T12:29:09;9.30;99.90
7204;DHT22;3643;52.460;13.322;2024-02-04T12:31:37;9.30;99.90
7204;DHT22;3643;52.460;13.322;2024-02-04T12:34:08;9.10;99.90
7204;DHT22;3643;52.460;13.322;2024-02-04T12:36:40;9.10;99.90
7204;DHT22;3643;52.460;13.322;2024-02-04T12:39:13;9.10;99.90
7204;DHT22;3643;52.460;13.322;2024-02-04T12:41:41;9.00;99.90
7204;DHT22;3643;52.460;13.322;2024-02-04T12:44:09;9.00;99.90
7204;DHT22;3643;52.460;13.322;2024-02-04T12:46:37;8.80;99.90
7204;DHT22;3643;52.460;13.322;2024-02-04T12:49:06;8.70;99.90
7204;DHT22;3643;52.460;13.322;2024-02-04T12:51:34;8.80;99.90
7204;DHT22;3643;52.460;13.322;2024-02-04T12:54:07;8.80;99.90
7204;DHT22;3643;52.460;13.322;2024-02-04T12:56:46;9.20;99.90
7204;DHT22;3643;52.460;13.322;2024-02-04T12:59:28;8.80;99.90
7204;DHT22;3643;52.460;13.322;2024-02-04T13:01:57;8.70;99.90
7204;DHT22;3643;52.460;13.322;2024-02-04T13:04:25;8.80;99.90
7204;DHT22;3643;52.460;13.322;2024-02-04T13:06:53;8.70;99.90
7204;DHT22;3643;52.460;13.322;2024-02-04T13:09:23;8.80;99.90
7204;DHT22;3643;52.460;13.322;2024-02-04T13:11:51;8.80;99.90
7204;DHT22;3643;52.460;13.322;2024-02-04T13:14:19;8.80;99.90
7204;DHT22;3643;52.460;13.322;2024-02-04T13:16:48;8.70;99.90
7204;DHT22;3643;52.460;13.322;2024-02-04T13:19:17;8.70;99.90
7204;DHT22;3643;52.460;13.322;2024-02-04T13:21:45;8.70;99.90
7204;DHT22;3643;52.460;13.322;2024-02-04T13:24:13;8.60;99.90
7204;DHT22;3643;52.460;13.322;2024-02-04T13:26:43;8.60;99.90
7204;DHT22;3643;52.460;13.322;2024-02-04T13:29:11;8.60;99.90
7204;DHT22;3643;52.460;13.322;2024-02-04T13:31:39;8.60;99.90
7204;DHT22;3643;52.460;13.322;2024-02-04T13:34:08;8.50;99.90
7204;DHT22;3643;52.460;13.322;2024-02-04T13:36:37;8.50;99.90
7204;DHT22;3643;52.460;13.322;2024-02-04T13:39:05;8.50;99.90
7204;DHT22;3643;52.460;13.322;2024-02-04T13:41:34;8.50;99.90
7204;DHT22;3643;52.460;13.322;2024-02-04T13:44:04;8.50;99.90
7204;DHT22;3643;52.460;13.322;2024-02-04T13:46:35;8.50;99.90
7204;DHT22;3643;52.460;13.322;2024-02-04T13:49:03;8.60;99.90
7204;DHT22;3643;52.460;13.322;2024-02-04T13:51:33;8.50;99.90
7204;DHT22;3643;52.460;13.322;2024-02-04T13:54:11;8.50;99.90
7204;DHT22;3643;52.460;13.322;2024-02-04T13:56:44;8.50;99.90
7204;DHT22;3643;52.460;13.322;2024-02-04T13:59:14;8.50;99.90
7204;DHT22;3643;52.460;13.322;2024-02-04T14:01:43;8.50;99.90
7204;DHT22;3643;52.460;13.322;2024-02-04T14:04:11;8.50;99.90
7204;DHT22;3643;52.460;13.322;2024-02-04T14:06:40;8.50;99.90
7204;DHT22;3643;52.460;13.322;2024-02-04T14:09:08;8.40;99.90
7204;DHT22;3643;52.460;13.322;2024-02-04T14:11:39;8.40;99.90
7204;DHT22;3643;52.460;13.322;2024-02-04T14:14:07;8.40;99.90
7204;DHT22;3643;52.460;13.322;2024-02-04T14:16:37;8.50;99.90
7204;DHT22;3643;52.460;13.322;2024-02-04T14:19:05;8.40;99.90
7204;DHT22;3643;52.460;13.322;2024-02-04T14:21:34;8.40;99.90
7204;DHT22;3643;52.460;13.322;2024-02-04T14:24:03;8.50;99.90
7204;DHT22;3643;52.460;13.322;2024-02-04T14:26:31;8.50;99.90
7204;DHT22;3643;52.460;13.322;2024-02-04T14:29:01;8.50;99.90
7204;DHT22;3643;52.460;13.322;2024-02-04T14:31:30;8.50;99.90
7204;DHT22;3643;52.460;13.322;2024-02-04T14:33:59;8.40;99.90
7204;DHT22;3643;52.460;13.322;2024-02-04T14:36:28;8.50;99.90
7204;DHT22;3643;52.460;13.322;2024-02-04T14:38:57;8.50;99.90
7204;DHT22;3643;52.460;13.322;2024-02-04T14:41:25;8.40;99.90
7204;DHT22;3643;52.460;13.322;2024-02-04T14:43:54;8.40;99.90
7204;DHT22;3643;52.460;13.322;2024-02-04T14:46:22;8.40;99.90
7204;DHT22;3643;52.460;13.322;2024-02-04T14:48:50;8.30;99.90
7204;DHT22;3643;52.460;13.322;2024-02-04T14:51:20;8.30;99.90
7204;DHT22;3643;52.460;13.322;2024-02-04T14:53:48;8.40;99.90
7204;DHT22;3643;52.460;13.322;2024-02-04T14:56:16;8.40;99.90
7204;DHT22;3643;52.460;13.322;2024-02-04T14:58:44;8.40;99.90
7204;DHT22;3643;52.460;13.322;2024-02-04T15:01:13;8.40;99.90
7204;DHT22;3643;52.460;13.322;2024-02-04T15:03:44;8.40;99.90
7204;DHT22;3643;52.460;13.322;2024-02-04T15:06:13;8.40;99.90
7204;DHT22;3643;52.460;13.322;2024-02-04T15:08:43;8.30;99.90
7204;DHT22;3643;52.460;13.322;2024-02-04T15:11:12;8.30;99.90
7204;DHT22;3643;52.460;13.322;2024-02-04T15:13:40;8.30;99.90
7204;DHT22;3643;52.460;13.322;2024-02-04T15:16:10;8.30;99.90
7204;DHT22;3643;52.460;13.322;2024-02-04T15:18:39;8.30;99.90
7204;DHT22;3643;52.460;13.322;2024-02-04T15:21:09;8.30;99.90
7204;DHT22;3643;52.460;13.322;2024-02-04T15:23:37;8.30;99.90
7204;DHT22;3643;52.460;13.322;2024-02-04T15:26:10;8.40;99.90
7204;DHT22;3643;52.460;13.322;2024-02-04T15:28:43;8.40;99.90
7204;DHT22;3643;52.460;13.322;2024-02-04T15:31:12;8.30;99.90
7204;DHT22;3643;52.460;13.322;2024-02-04T15:33:41;8.30;99.90
7204;DHT22;3643;52.460;13.322;2024-02-04T15:36:09;8.30;99.90
7204;DHT22;3643;52.460;13.322;2024-02-04T15:38:38;8.30;99.90
7204;DHT22;3643;52.460;13.322;2024-02-04T15:41:07;8.20;99.90
7204;DHT22;3643;52.460;13.322;2024-02-04T15:43:36;8.20;99.90
7204;DHT22;3643;52.460;13.322;2024-02-04T15:46:08;8.20;99.90
7204;DHT22;3643;52.460;13.322;2024-02-04T15:48:38;8.30;99.90
7204;DHT22;3643;52.460;13.322;2024-02-04T15:51:07;8.30;99.90
7204;DHT22;3643;52.460;13.322;2024-02-04T15:53:37;8.40;99.90
7204;DHT22;3643;52.460;13.322;2024-02-04T15:56:08;8.30;99.90
7204;DHT22;3643;52.460;13.322;2024-02-04T15:58:38;8.30;99.90
7204;DHT22;3643;52.460;13.322;2024-02-04T16:01:10;8.30;99.90
7204;DHT22;3643;52.460;13.322;2024-02-04T16:03:39;8.30;99.90
7204;DHT22;3643;52.460;13.322;2024-02-04T16:06:09;8.20;99.90
7204;DHT22;3643;52.460;13.322;2024-02-04T16:08:38;8.20;99.90
7204;DHT22;3643;52.460;13.322;2024-02-04T16:11:16;8.20;99.90
7204;DHT22;3643;52.460;13.322;2024-02-04T16:13:46;8.30;99.90
7204;DHT22;3643;52.460;13.322;2024-02-04T16:16:20;8.20;99.90